地図

経路データ

SID SEASON NUMBER BASIN SUBBASIN NAME ISO_TIME NATURE LAT LON WMO_WIND WMO_PRES WMO_AGENCY TRACK_TYPE DIST2LAND LANDFALL IFLAG USA_AGENCY USA_ATCF_ID USA_LAT USA_LON USA_RECORD USA_STATUS USA_WIND USA_PRES USA_SSHS USA_R34_NE USA_R34_SE USA_R34_SW USA_R34_NW USA_R50_NE USA_R50_SE USA_R50_SW USA_R50_NW USA_R64_NE USA_R64_SE USA_R64_SW USA_R64_NW USA_POCI USA_ROCI USA_RMW USA_EYE TOKYO_LAT TOKYO_LON TOKYO_GRADE TOKYO_WIND TOKYO_PRES TOKYO_R50_DIR TOKYO_R50_LONG TOKYO_R50_SHORT TOKYO_R30_DIR TOKYO_R30_LONG TOKYO_R30_SHORT TOKYO_LAND CMA_LAT CMA_LON CMA_CAT CMA_WIND CMA_PRES HKO_LAT HKO_LON HKO_CAT HKO_WIND HKO_PRES NEWDELHI_LAT NEWDELHI_LON NEWDELHI_GRADE NEWDELHI_WIND NEWDELHI_PRES NEWDELHI_CI NEWDELHI_DP NEWDELHI_POCI REUNION_LAT REUNION_LON REUNION_TYPE REUNION_WIND REUNION_PRES REUNION_TNUM REUNION_CI REUNION_RMW REUNION_R34_NE REUNION_R34_SE REUNION_R34_SW REUNION_R34_NW REUNION_R50_NE REUNION_R50_SE REUNION_R50_SW REUNION_R50_NW REUNION_R64_NE REUNION_R64_SE REUNION_R64_SW REUNION_R64_NW BOM_LAT BOM_LON BOM_TYPE BOM_WIND BOM_PRES BOM_TNUM BOM_CI BOM_RMW BOM_R34_NE BOM_R34_SE BOM_R34_SW BOM_R34_NW BOM_R50_NE BOM_R50_SE BOM_R50_SW BOM_R50_NW BOM_R64_NE BOM_R64_SE BOM_R64_SW BOM_R64_NW BOM_ROCI BOM_POCI BOM_EYE BOM_POS_METHOD BOM_PRES_METHOD NADI_LAT NADI_LON NADI_CAT NADI_WIND NADI_PRES WELLINGTON_LAT WELLINGTON_LON WELLINGTON_WIND WELLINGTON_PRES DS824_LAT DS824_LON DS824_STAGE DS824_WIND DS824_PRES TD9636_LAT TD9636_LON TD9636_STAGE TD9636_WIND TD9636_PRES TD9635_LAT TD9635_LON TD9635_WIND TD9635_PRES TD9635_ROCI NEUMANN_LAT NEUMANN_LON NEUMANN_CLASS NEUMANN_WIND NEUMANN_PRES MLC_LAT MLC_LON MLC_CLASS MLC_WIND MLC_PRES USA_GUST BOM_GUST BOM_GUST_PER REUNION_GUST REUNION_GUST_PER USA_SEAHGT USA_SEARAD_NE USA_SEARAD_SE USA_SEARAD_SW USA_SEARAD_NW STORM_SPEED STORM_DIR
2007032S11137 2007 4 SP EA NELSON 2007-01-31 15:00:00 NR -11.1000 137.000 20 1001 bom main 114 114 ______O_______ -1 -11.1000 137.000 20 1001 1.50000 1.50000 29 29 2 90
2007032S11137 2007 4 SP EA NELSON 2007-01-31 18:00:00 NR -11.1000 137.100 20 1001 bom main 120 110 ______O_______ -1 -11.1000 137.100 20 1001 1.50000 1.50000 29 29 1 137
2007032S11137 2007 4 SP EA NELSON 2007-01-31 21:00:00 NR -11.2000 137.100 20 1000 bom main 110 110 ______O_______ -1 -11.2000 137.100 20 1000 1.50000 1.50000 29 29 3 90
2007032S11137 2007 4 SP EA NELSON 2007-02-01 00:00:00 NR -11.1000 137.400 25 1000 bom main 140 140 ______O_______ -1 -11.1000 137.400 25 1000 2.00000 2.00000 34 34 7 90
2007032S11137 2007 4 SP EA NELSON 2007-02-01 03:00:00 NR -11.2000 137.800 25 1000 bom main 150 148 ______O_______ -1 -11.2000 137.800 25 1000 34 34 8 112
2007032S11137 2007 4 SP EA NELSON 2007-02-01 06:00:00 NR -11.4100 138.170 30 998 bom main 165 165 ______O_______ -1 -11.4100 138.170 30 998 2.50000 2.50000 45 45 9 113
2007032S11137 2007 4 SP EA NELSON 2007-02-01 09:00:00 NR -11.5600 138.680 30 998 bom main 200 200 ______O_______ -1 -11.5600 138.680 30 998 2.50000 2.50000 45 45 9 111
2007032S11137 2007 4 SP EA NELSON 2007-02-01 12:00:00 NR -11.7400 139.060 30 998 bom main 238 235 ______O_______ -1 -11.7400 139.060 30 998 2.50000 2.50000 45 45 8 126
2007032S11137 2007 4 SP EA NELSON 2007-02-01 15:00:00 NR -12.0000 139.300 25 998 bom main 252 240 ______O_______ -1 -12.0000 139.300 25 998 2.00000 2.50000 35 35 8 157
2007032S11137 2007 4 SP EA NELSON 2007-02-01 18:00:00 NR -12.4600 139.370 25 998 bom main 239 239 ______O_______ -1 -12.4600 139.370 25 998 1.50000 2.50000 35 35 10 190
2007032S11137 2007 4 SP EA NELSON 2007-02-01 21:00:00 NR -12.9300 139.140 25 998 bom main 237 212 ______O_______ -1 -12.9300 139.140 25 998 2.00000 2.50000 35 35 10 213
2007032S11137 2007 4 SP EA NELSON 2007-02-02 00:00:00 NR -13.3100 138.800 30 997 bom main 212 163 ______O_______ -1 -13.3100 138.800 30 997 2.50000 2.50000 45 45 10 225
2007032S11137 2007 4 SP EA NELSON 2007-02-02 03:00:00 NR -13.6300 138.410 30 997 bom main 163 151 ______O_______ -1 -13.6300 138.410 30 997 2.50000 2.50000 45 45 7 225
2007032S11137 2007 4 SP EA NELSON 2007-02-02 06:00:00 NR -13.8000 138.300 25 998 bom main 151 133 ______O_______ -1 -13.8000 138.300 25 998 2.00000 2.50000 45 45 4 209
2007032S11137 2007 4 SP EA NELSON 2007-02-02 09:00:00 NR -14.0000 138.200 25 998 bom main 133 120 ______O_______ -1 -14.0000 138.200 25 998 2.00000 2.50000 45 45 4 213
2007032S11137 2007 4 SP EA NELSON 2007-02-02 12:00:00 NR -14.1000 138.100 25 998 bom main 120 119 ______O_______ -1 -14.1000 138.100 25 998 2.00000 2.50000 45 45 2 207
2007032S11137 2007 4 SP EA NELSON 2007-02-02 15:00:00 NR -14.2000 138.100 25 998 bom main 119 118 ______O_______ -1 -14.2000 138.100 25 998 2.00000 2.50000 45 45 5 172
2007032S11137 2007 4 SP EA NELSON 2007-02-02 18:00:00 TS -14.6000 138.167 25 998 bom main 133 126 O_____O_____O_ jtwc_sh SH122007 -14.8000 138.300 TD 30 1000 -1 1002 110 35 -14.5000 138.100 25 998 1.50000 2.50000 -14.8000 138.300 TC 30 45 45 5 184
2007032S11137 2007 4 SP EA NELSON 2007-02-02 21:00:00 TS -14.7250 138.070 25 998 bom main 126 116 P_____O_____P_ SH122007 -14.8500 138.140 TD 30 1000 -1 1003 125 40 -14.6000 138.000 25 998 2.00000 2.50000 -14.8500 138.140 TC 30 45 45 3 223
2007032S11137 2007 4 SP EA NELSON 2007-02-03 00:00:00 TS -14.8200 137.960 25 999 bom main 121 111 O_____O_____O_ jtwc_sh SH122007 -14.9000 138.000 TD 30 1000 -1 1004 140 45 -14.7000 137.900 25 999 2.00000 2.00000 -14.9000 138.000 TC 30 45 45 3 229
2007032S11137 2007 4 SP EA NELSON 2007-02-03 03:00:00 TS -14.9000 137.862 25 1000 bom main 117 109 P_____O_____P_ SH122007 -14.9500 137.893 TD 27 1001 -1 -14.8000 137.800 25 1000 2.00000 2.00000 -14.9500 137.893 TC 27 45 45 2 226
2007032S11137 2007 4 SP EA NELSON 2007-02-03 06:00:00 TS -14.9667 137.800 25 998 bom main 116 108 O_____O_____O_ jtwc_sh SH122007 -15.0000 137.800 TD 25 1002 -1 -14.9000 137.800 25 998 2.00000 2.00000 -15.0000 137.800 TC 25 45 45 2 226
2007032S11137 2007 4 SP EA NELSON 2007-02-03 09:00:00 TS -15.0283 137.728 25 998 bom main 108 108 P_____O_____P_ SH122007 -15.0425 137.693 TD 25 1002 -1 -15.0000 137.800 25 998 1.50000 2.00000 -15.0425 137.693 TC 25 45 45 2 215
2007032S11137 2007 4 SP EA NELSON 2007-02-03 12:00:00 TS -15.1000 137.700 25 998 bom main 114 99 O_____O_____O_ jtwc_sh SH122007 -15.1000 137.600 TD 25 1002 -1 -15.1000 137.900 25 998 1.50000 1.50000 -15.1000 137.600 TC 25 45 45 2 213
2007032S11137 2007 4 SP EA NELSON 2007-02-03 15:00:00 TS -15.1950 137.623 25 998 bom main 99 89 P_____O_____P_ SH122007 -15.1925 137.535 TD 25 1002 -1 -15.2000 137.800 25 998 2.00000 2.00000 -15.1925 137.535 TC 25 45 45 2 214
2007032S11137 2007 4 SP EA NELSON 2007-02-03 18:00:00 TS -15.3000 137.567 25 998 bom main 89 74 O_____O_____O_ jtwc_sh SH122007 -15.3000 137.500 TD 25 1002 -1 -15.3000 137.700 25 998 2.00000 2.00000 -15.3000 137.500 TC 25 45 45 3 200
2007032S11137 2007 4 SP EA NELSON 2007-02-03 21:00:00 TS -15.4383 137.528 25 998 bom main 74 64 P_____O_____P_ SH122007 -15.4075 137.492 TD 25 1002 -1 -15.5000 137.600 25 998 2.00000 2.00000 -15.4075 137.492 TC 25 45 45 3 203
2007032S11137 2007 4 SP EA NELSON 2007-02-04 00:00:00 TS -15.5333 137.467 25 1000 bom main 64 49 O_____O_____O_ jtwc_sh SH122007 -15.5000 137.500 TD 25 1002 -1 1002 140 45 -15.6000 137.400 25 1000 2.00000 2.00000 -15.5000 137.500 TC 25 45 45 2 209
2007032S11137 2007 4 SP EA NELSON 2007-02-04 03:00:00 TS -15.6000 137.433 25 999 bom main 49 39 P_____O_____P_ SH122007 -15.5500 137.500 TD 25 1002 -1 -15.7000 137.300 25 999 2.00000 2.00000 -15.5500 137.500 TC 25 45 45 2 203
2007032S11137 2007 4 SP EA NELSON 2007-02-04 06:00:00 TS -15.7000 137.400 25 999 bom main 39 39 O_____O_____O_ jtwc_sh SH122007 -15.6000 137.500 TD 25 1002 -1 -15.9000 137.200 25 999 2.00000 2.00000 -15.6000 137.500 TC 25 45 45 1 210
2007032S11137 2007 4 SP EA NELSON 2007-02-04 09:00:00 TS -15.7283 137.362 25 999 bom main 39 30 P_____O_____P_ SH122007 -15.6925 137.493 TD 25 1002 -1 -15.8000 137.100 25 999 2.00000 2.00000 -15.6925 137.493 TC 25 45 45 1 213
2007032S11137 2007 4 SP EA NELSON 2007-02-04 12:00:00 TS -15.7667 137.367 25 999 bom main 30 30 O_____O_____O_ jtwc_sh SH122007 -15.8000 137.500 TD 25 1002 -1 -15.7000 137.100 25 999 2.00000 2.00000 -15.8000 137.500 TC 25 45 45 1 0
2007032S11137 2007 4 SP EA NELSON 2007-02-04 15:00:00 TS -15.8333 137.357 25 999 bom main 30 22 P_____O_____P_ SH122007 -15.9000 137.535 TD 25 1002 -1 -15.7000 137.000 25 999 2.00000 2.00000 -15.9000 137.535 TC 25 45 45 1 0
2007032S11137 2007 4 SP EA NELSON 2007-02-04 18:00:00 TS -15.9000 137.367 25 998 bom main 22 11 O_____O_____O_ jtwc_sh SH122007 -16.0000 137.600 TD 25 1002 -1 -15.7000 136.900 25 998 2.00000 2.00000 -16.0000 137.600 TC 25 45 45 2 149
2007032S11137 2007 4 SP EA NELSON 2007-02-04 21:00:00 TS -15.9767 137.452 25 998 bom main 15 11 P_____O_____P_ SH122007 -16.1150 137.677 TD 25 1002 -1 -15.7000 137.000 25 998 2.00000 2.00000 -16.1150 137.677 TC 25 45 45 3 127
2007032S11137 2007 4 SP EA NELSON 2007-02-05 00:00:00 TS -16.0667 137.600 25 999 bom main 11 11 O_____O_____O_ jtwc_sh SH122007 -16.2000 137.800 TD 25 1002 -1 -15.8000 137.200 25 999 1.50000 2.00000 -16.2000 137.800 TC 25 45 45 3 104
2007032S11137 2007 4 SP EA NELSON 2007-02-05 03:00:00 TS -16.0483 137.757 25 997 bom main 24 24 P_____O_____P_ SH122007 -16.2225 137.985 TD 25 999 -1 -15.7000 137.300 25 997 2.00000 2.00000 -16.2225 137.985 TC 25 45 45 3 83
2007032S11137 2007 4 SP EA NELSON 2007-02-05 06:00:00 TS -16.0333 137.900 25 996 bom main 30 30 O_____O_____O_ jtwc_sh SH122007 -16.2000 138.200 TD 25 997 -1 1002 150 45 -15.7000 137.300 25 996 1.50000 2.00000 -16.2000 138.200 TC 25 45 45 4 84
2007032S11137 2007 4 SP EA NELSON 2007-02-05 09:00:00 TS -16.0100 138.133 25 997 bom main 48 48 P_____O_____P_ SH122007 -16.1650 138.400 TD 25 999 -1 -15.7000 137.600 25 997 1.50000 2.00000 -16.1650 138.400 TC 25 34 34 5 74
2007032S11137 2007 4 SP EA NELSON 2007-02-05 12:00:00 TS -15.9000 138.400 25 997 bom main 82 82 O_____O_____O_ jtwc_sh SH122007 -16.1000 138.600 TD 25 1002 -1 -15.5000 138.000 25 997 2.00000 2.00000 30 -16.1000 138.600 TC 25 34 34 5 73
2007032S11137 2007 4 SP EA NELSON 2007-02-05 15:00:00 TS -15.8666 138.628 30 996 bom main 100 100 P_____O_____P_ SH122007 -16.0000 138.793 TD 27 1000 -1 -15.6000 138.300 30 996 2.50000 2.50000 30 -16.0000 138.793 TC 27 40 40 5 86
2007032S11137 2007 4 SP EA NELSON 2007-02-05 18:00:00 TS -15.8667 138.867 32 995 bom main 105 105 O_____O_____O_ jtwc_sh SH122007 -15.9000 139.000 TD 30 998 -1 1002 150 45 -15.8000 138.600 32 995 2.50000 2.50000 30 239 1006 -15.9000 139.000 TC 30 45 45 5 88
2007032S11137 2007 4 SP EA NELSON 2007-02-05 21:00:00 TS -15.8466 139.113 35 992 bom main 123 123 P_____O_____P_ SH122007 -15.8199 139.220 TD 32 997 -1 1002 150 45 -15.9000 138.900 35 992 3.00000 3.00000 30 300 1006 -15.8199 139.220 TC 32 49 49 5 87
2007032S11137 2007 4 SP EA NELSON 2007-02-06 00:00:00 TS -15.8333 139.433 35 992 bom main 130 128 O_____O_____O_ jtwc_sh SH122007 -15.8000 139.500 TS 35 997 0 1002 150 45 -15.9000 139.300 35 992 3.00000 3.00000 30 300 1006 -15.8000 139.500 TC 35 49 49 7 96
2007032S11137 2007 4 SP EA NELSON 2007-02-06 03:00:00 TS -15.9184 139.862 40 990 bom main 143 115 P_____O_____P_ SH122007 -15.8776 139.892 TS 35 996 0 1002 150 45 -16.0000 139.800 40 990 3.00000 3.00000 30 300 1006 -15.8776 139.892 TC 35 55 55 9 101
2007032S11137 2007 4 SP EA NELSON 2007-02-06 06:00:00 TS -16.0000 140.333 45 988 bom main 115 81 O_____O_____O_ jtwc_sh SH122007 -16.0000 140.300 TS 35 996 0 1002 150 45 -16.0000 140.400 45 988 3.00000 3.00000 30 300 1006 -16.0000 140.300 TC 35 60 60 8 103
2007032S11137 2007 4 SP EA NELSON 2007-02-06 09:00:00 TS -16.1000 140.653 50 985 bom main 72 48 P_____V_____P_ SH122007 -16.0999 140.630 TS 40 993 0 1002 150 35 -16.1000 140.700 50 985 3.50000 3.50000 30 269 1005 -16.0999 140.630 TC 40 69 69 6 109
2007032S11137 2007 4 SP EA NELSON 2007-02-06 12:00:00 TS -16.2000 140.933 50 985 bom main 48 24 O_____O_____O_ jtwc_sh SH122007 -16.2000 140.900 TS 45 991 0 50 50 50 50 1002 150 25 -16.2000 141.000 50 985 3.50000 3.50000 30 239 1004 -16.2000 140.900 TC 45 69 69 5 110
2007032S11137 2007 4 SP EA NELSON 2007-02-06 15:00:00 TS -16.2716 141.143 50 985 bom main 24 10 P_____V_____P_ SH122007 -16.3074 141.115 TS 47 989 0 50 50 50 50 1002 150 25 -16.2000 141.200 50 985 3.50000 3.50000 30 194 1003 -16.3074 141.115 TC 47 69 69 4 109
2007032S11137 2007 4 SP EA NELSON 2007-02-06 18:00:00 TS -16.3333 141.333 50 985 bom main 10 0 O_____O_____O_ jtwc_sh SH122007 -16.4000 141.300 TS 50 987 0 50 50 50 50 1002 150 25 -16.2000 141.400 50 985 3.50000 3.50000 30 150 1002 -16.4000 141.300 TC 50 69 69 4 106
2007032S11137 2007 4 SP EA NELSON 2007-02-06 21:00:00 TS -16.3717 141.510 45 988 bom main 0 0 P_____V_____P_ SH122007 -16.4575 141.515 TS 42 992 0 50 50 50 50 1000 167 30 -16.2000 141.500 45 988 3.00000 3.50000 30 150 1002 -16.4575 141.515 TC 42 64 64 3 98
2007032S11137 2007 4 SP EA NELSON 2007-02-07 00:00:00 TS -16.3800 141.660 35 990 bom main 0 0 O_____O_____O_ jtwc_sh SH122007 -16.5000 141.700 TS 35 997 0 50 50 50 50 999 185 35 -16.2000 141.600 35 990 2.00000 3.00000 30 150 1002 -16.5000 141.700 TC 35 49 49 4 90
2007032S11137 2007 4 SP EA NELSON 2007-02-07 03:00:00 TS -16.3737 141.910 30 992 bom main 0 0 P_____O_____P_ SH122007 -16.5475 141.820 TS 30 999 -1 -16.2000 142.000 30 992 30 -16.5475 141.820 TC 30 45 45 6 82
2007032S11137 2007 4 SP EA NELSON 2007-02-07 06:00:00 TS -16.3000 142.260 30 992 bom main 0 0 O_____O_____O_ jtwc_sh SH122007 -16.6000 141.900 TD 25 1002 -1 -16.1000 142.500 30 992 30 -16.6000 141.900 TC 25 40 40 12 72
2007032S11137 2007 4 SP EA NELSON 2007-02-07 09:00:00 NR -16.0000 143.100 20 994 bom main 0 0 ______O_______ SH122007 TD -1 -16.0000 143.100 20 994 30 TC 29 29 14 74
2007032S11137 2007 4 SP EA NELSON 2007-02-07 12:00:00 NR -15.9000 143.700 15 996 bom main 0 ______O_______ -1 -15.9000 143.700 15 996 20 20 12 80

デジタル台風データ・検索

IBTrACS Databaseについて

本データベースは、米国NOAAが公開する1842年以降の世界の熱帯低気圧のベストトラックデータアーカイブInternational Best Track Archive for Climate Stewardship (IBTrACS)を、ウェブで閲覧しやすい形式に変換したものです。

最終更新日:2021-10-27